Terminal Aerodrome Forecast
Issued by NWS

Home | Current Version | Previous Version | Graphics & Text | Print | Product List | Glossary On
Versions: 1 2 3 4 5 6 7 8 9 10 11 12 13 14
983
FTUS43 KMPX 181132
TAFRNH
TAF
KRNH 181132Z 1812/1912 22005KT P6SM BKN150
     FM181300 24008KT P6SM SKC
     FM190300 VRB03KT P6SM FEW250=

USA.gov is the U.S. government's official web portal to all federal, state and local government web resources and services.